Home > Products > Valid Products > TAF

000
FTUS43 KGRR 271100
TAFLAN
TAF
KLAN 271140Z 2712/2812 02007KT P6SM BKN100
     FM271600 36007KT P6SM BKN020
     FM272100 34004KT P6SM SKC=



000
FTUS43 KGRR 271100
TAFBTL
TAF
KBTL 271140Z 2712/2812 05005KT P6SM BKN080
     FM271800 36006KT P6SM FEW020
     FM280000 VRB03KT P6SM SKC=



000
FTUS43 KGRR 271100
TAFAZO
TAF
KAZO 271140Z 2712/2812 05005KT P6SM BKN080
     FM271800 36006KT P6SM FEW020
     FM280000 VRB03KT P6SM SKC=



000
FTUS43 KGRR 271100
TAFJXN
TAF
KJXN 271140Z 2712/2812 03006KT P6SM OVC100
     FM271800 36009KT P6SM FEW020
     FM280000 33003KT P6SM SKC=



000
FTUS43 KGRR 271100
TAFGRR
TAF
KGRR 271140Z 2712/2812 07006KT P6SM SCT070
     FM271700 02007KT P6SM SCT020
     FM280000 VRB03KT P6SM SKC=



000
FTUS43 KGRR 271100
TAFMKG
TAF
KMKG 271140Z 2712/2812 07007KT P6SM SCT070
     FM271800 36005KT P6SM FEW020
     FM280000 VRB03KT P6SM SKC=



000
FTUS43 KGRR 270500
TAFJXN
TAF
KJXN 270540Z 2706/2806 06005KT P6SM BKN080
     FM271700 36007KT P6SM SKC=



000
FTUS43 KGRR 270500
TAFMKG
TAF
KMKG 270540Z 2706/2806 08006KT P6SM OVC060
     FM271800 36005KT P6SM SKC=



000
FTUS43 KGRR 270500
TAFLAN
TAF
KLAN 270540Z 2706/2806 06005KT P6SM BKN070
     FM271700 36007KT P6SM SKC=



000
FTUS43 KGRR 270500
TAFGRR
TAF
KGRR 270540Z 2706/2806 07006KT P6SM BKN060
     FM271800 36006KT P6SM SKC=



000
FTUS43 KGRR 270500
TAFAZO
TAF
KAZO 270540Z 2706/2806 07004KT P6SM BKN060
     FM271800 36006KT P6SM SKC=



000
FTUS43 KGRR 270500
TAFBTL
TAF
KBTL 270540Z 2706/2806 07005KT P6SM BKN070
     FM271700 36006KT P6SM SKC=



000
FTUS43 KGRR 262300
TAFAZO
TAF
KAZO 262339Z 2700/2724 10003KT P6SM OVC080
     FM270900 05005KT P6SM OVC080
     FM271800 36006KT P6SM SKC=



000
FTUS43 KGRR 262300
TAFBTL
TAF
KBTL 262339Z 2700/2724 10006KT P6SM BKN080
     FM270900 05005KT P6SM BKN080
     FM271700 36008KT P6SM SKC=



000
FTUS43 KGRR 262300
TAFLAN
TAF
KLAN 262339Z 2700/2724 05006KT P6SM BKN090
     FM271600 36009KT P6SM SKC=



000
FTUS43 KGRR 262300
TAFGRR
TAF
KGRR 262339Z 2700/2724 08006KT P6SM BKN080
     FM271800 36006KT P6SM SKC=



000
FTUS43 KGRR 262300
TAFJXN
TAF
KJXN 262339Z 2700/2724 05003KT P6SM BKN090
     FM271600 36009KT P6SM SKC=



000
FTUS43 KGRR 262300
TAFMKG
TAF
KMKG 262339Z 2700/2724 10006KT P6SM OVC070
     FM271800 36006KT P6SM SKC=



000
FTUS43 KGRR 261700
TAFGRR
TAF
KGRR 261720Z 2618/2718 08006KT P6SM OVC080=



000
FTUS43 KGRR 261700
TAFLAN
TAF
KLAN 261720Z 2618/2718 05006KT P6SM BKN200
     FM262200 05006KT P6SM BKN090=



000
FTUS43 KGRR 261700
TAFBTL
TAF
KBTL 261720Z 2618/2718 06006KT P6SM BKN200
     FM262000 07006KT P6SM BKN080=



000
FTUS43 KGRR 261700
TAFMKG
TAF
KMKG 261720Z 2618/2718 10006KT P6SM OVC070=



000
FTUS43 KGRR 261700
TAFAZO
TAF
KAZO 261720Z 2618/2718 08006KT P6SM OVC080=



000
FTUS43 KGRR 261700
TAFJXN
TAF
KJXN 261720Z 2618/2718 05006KT P6SM BKN200
     FM262200 05006KT P6SM BKN090=



000
FTUS43 KGRR 261100
TAFAZO
TAF
KAZO 261140Z 2612/2712 09005KT P6SM BKN090=



000
FTUS43 KGRR 261100
TAFGRR
TAF
KGRR 261140Z 2612/2712 09006KT P6SM BKN090=



000
FTUS43 KGRR 261100
TAFMKG
TAF
KMKG 261140Z 2612/2712 09005KT P6SM BKN090
     FM261800 14008KT P6SM BKN060
     FM270000 11006KT P6SM -SHSN BKN050=



000
FTUS43 KGRR 261100
TAFLAN
TAF
KLAN 261140Z 2612/2712 07006KT P6SM SCT100=



000
FTUS43 KGRR 261100
TAFJXN
TAF
KJXN 261140Z 2612/2712 05005KT P6SM SCT100=



000
FTUS43 KGRR 261100
TAFBTL
TAF
KBTL 261140Z 2612/2712 09005KT P6SM BKN090=



000
FTUS43 KGRR 260800 AAB
TAFLAN
TAF AMD
KLAN 260826Z 2608/2706 04007KT P6SM SCT014
      TEMPO 2608/2610 OVC014
     FM261500 05006KT P6SM BKN100=



000
FTUS43 KGRR 260600 AAA
TAFGRR
TAF AMD
KGRR 260621Z 2606/2706 06007KT P6SM FEW015
     FM261200 06005KT P6SM SCT250
     FM261500 09008KT P6SM BKN100=



000
FTUS43 KGRR 260600 AAA
TAFLAN
TAF AMD
KLAN 260615Z 2606/2706 04007KT P6SM SCT250
      TEMPO 2606/2608 BKN020
     FM261500 05006KT P6SM BKN100=



000
FTUS43 KGRR 260500
TAFMKG
TAF
KMKG 260540Z 2606/2706 05005KT P6SM SCT250
     FM261500 13008KT P6SM BKN100=



000
FTUS43 KGRR 260500
TAFJXN
TAF
KJXN 260540Z 2606/2706 04007KT P6SM SCT250
     FM261500 06006KT P6SM BKN100=



000
FTUS43 KGRR 260500
TAFBTL
TAF
KBTL 260540Z 2606/2706 05008KT P6SM SCT250
     FM261500 09006KT P6SM BKN100=



000
FTUS43 KGRR 260500
TAFLAN
TAF
KLAN 260540Z 2606/2706 04007KT P6SM SCT250
     FM261500 05006KT P6SM BKN100=



000
FTUS43 KGRR 260500
TAFAZO
TAF
KAZO 260540Z 2606/2706 05008KT P6SM SCT250
     FM261600 07007KT P6SM BKN100=



000
FTUS43 KGRR 260500
TAFGRR
TAF
KGRR 260540Z 2606/2706 06007KT P6SM SCT015
      TEMPO 2606/2610 BKN015
     FM261200 06005KT P6SM SCT250
     FM261500 09008KT P6SM BKN100=



000
FTUS43 KGRR 260300 AAA
TAFGRR
TAF AMD
KGRR 260358Z 2604/2624 06007KT P6SM SCT015
      TEMPO 2604/2606 BKN015
     FM260600 07004KT P6SM SCT250
     FM261500 13008KT P6SM BKN100=



000
FTUS43 KGRR 252300 RRA
TAFBTL
TAF
KBTL 252347Z 2600/2624 05010KT P6SM BKN060 BKN200
     FM260600 04007KT P6SM SCT250
     FM261500 09006KT P6SM BKN100=



000
FTUS43 KGRR 252300 RRA
TAFJXN
TAF
KJXN 252347Z 2600/2624 04010KT P6SM BKN070 BKN200
     FM260600 04007KT P6SM SCT250
     FM261500 06006KT P6SM BKN100=



000
FTUS43 KGRR 252300 RRA
TAFGRR
TAF
KGRR 252347Z 2600/2624 05010KT P6SM BKN200
     FM260600 05004KT P6SM SCT250
     FM261500 13008KT P6SM BKN100=



000
FTUS43 KGRR 252300 RRA
TAFMKG
TAF
KMKG 252347Z 2600/2624 07008KT P6SM BKN200
     FM260600 08003KT P6SM SCT250
     FM261500 13008KT P6SM BKN100=



000
FTUS43 KGRR 252300 RRA
TAFAZO
TAF
KAZO 252347Z 2600/2624 05010KT P6SM BKN200
     FM260600 03006KT P6SM SCT250
     FM261500 09006KT P6SM BKN100=



000
FTUS43 KGRR 252300 RRA
TAFLAN
TAF
KLAN 252347Z 2600/2624 05010KT P6SM BKN200
     FM260600 03006KT P6SM SCT250
     FM261500 05006KT P6SM BKN100=



000
FTUS43 KGRR 251900 AAA
TAFJXN
TAF AMD
KJXN 251902Z 2519/2618 05010G18KT P6SM VCSH SCT025 OVC050
     FM260000 03006KT P6SM FEW025 SCT150=



000
FTUS43 KGRR 251900 AAA
TAFLAN
TAF AMD
KLAN 251901Z 2519/2618 05012G20KT P6SM BKN045
     FM260200 05006KT P6SM FEW025 SCT200=



000
FTUS43 KGRR 251900 AAA
TAFGRR
TAF AMD
KGRR 251901Z 2519/2618 06012G20KT P6SM SCT045 BKN120
     FM260000 05006KT P6SM FEW025 SCT200
     FM261600 09005KT P6SM BKN120=



000
FTUS43 KGRR 251900 AAA
TAFAZO
TAF AMD
KAZO 251900Z 2519/2618 05010G18KT P6SM VCSH SCT015 OVC045
     FM260000 03008KT P6SM FEW025 SCT150=



000
FTUS43 KGRR 251900 AAA
TAFBTL
TAF AMD
KBTL 251900Z 2519/2618 05010G18KT P6SM VCSH SCT015 OVC050
     FM260000 03008KT P6SM FEW025 SCT150=



000
FTUS43 KGRR 251700
TAFLAN
TAF
KLAN 251740Z 2518/2618 04012G20KT P6SM BKN021
     FM260200 05006KT P6SM FEW025 SCT200=



000
FTUS43 KGRR 251700
TAFAZO
TAF
KAZO 251740Z 2518/2618 05010G18KT 5SM -SN SCT015 OVC035
      TEMPO 2518/2520 2SM -SN BR OVC015
     FM252000 05010G18KT 6SM -SN SCT015 OVC035
      TEMPO 2520/2524 4SM -SN BR OVC015
     FM260000 03008KT P6SM FEW025 SCT150=



000
FTUS43 KGRR 251700
TAFMKG
TAF
KMKG 251740Z 2518/2618 07012G20KT P6SM BKN150
     FM252300 06007KT P6SM FEW025 SCT200
     FM261500 12005KT P6SM BKN120=



000
FTUS43 KGRR 251700
TAFBTL
TAF
KBTL 251740Z 2518/2618 06010G18KT 5SM -SN SCT015 OVC040
      TEMPO 2518/2520 2SM -SN BR OVC015
     FM252000 05010G18KT 6SM -SN SCT015 OVC035
      TEMPO 2520/2524 4SM -SN BR OVC015
     FM260000 03008KT P6SM FEW025 SCT150=



000
FTUS43 KGRR 251700
TAFGRR
TAF
KGRR 251740Z 2518/2618 06012G20KT P6SM SCT025 BKN120
     FM251830 06012G20KT P6SM BKN025
     FM260000 05006KT P6SM FEW025 SCT200
     FM261600 09005KT P6SM BKN120=



000
FTUS43 KGRR 251700
TAFJXN
TAF
KJXN 251740Z 2518/2618 05010G18KT P6SM SCT025 OVC050
      TEMPO 2518/2522 4SM -SN BR OVC025
     FM260000 03006KT P6SM FEW025 SCT150=



000
FTUS43 KGRR 251400 AAC
TAFJXN
TAF AMD
KJXN 251449Z 2515/2612 05012G18KT 4SM -SN BR SCT015 OVC035
      TEMPO 2515/2518 1 1/2SM -SHSN OVC015
     FM251800 06012G18KT 6SM -SHSN OVC035
     FM252100 04012G18KT 6SM BR OVC050
     FM260300 03007KT P6SM SCT035=



000
FTUS43 KGRR 251400 AAB
TAFJXN
TAF AMD
KJXN 251447Z 2515/2612 05012G18KT P6SM SCT015 OVC035
      TEMPO 2515/2518 4SM -SHSN OVC015
     FM251800 06012G18KT 6SM -SHSN OVC035
     FM252100 04012G18KT 6SM BR OVC050
     FM260300 03007KT P6SM SCT035=



000
FTUS43 KGRR 251400 AAB
TAFBTL
TAF AMD
KBTL 251445Z 2515/2612 05012G18KT 4SM -SN FEW015 OVC035
      TEMPO 2515/2517 2SM -SN OVC015
     FM251700 06012G18KT 6SM -SHSN BR OVC035
     FM252100 04012G18KT 6SM BR OVC035
     FM260300 03007KT P6SM SCT035=



000
FTUS43 KGRR 251400 AAB
TAFLAN
TAF AMD
KLAN 251445Z 2515/2612 05014G20KT P6SM SCT020 OVC045
     FM260200 05007KT P6SM SCT035=



000
FTUS43 KGRR 251400 AAB
TAFAZO
TAF AMD
KAZO 251443Z 2515/2612 05012G18KT 4SM -SN FEW015 OVC025
      TEMPO 2515/2517 2SM -SN OVC015
     FM251700 06012G18KT 6SM -SHSN BR OVC025
     FM252100 04012G18KT 6SM BR OVC025
     FM260300 03007KT P6SM BKN025=



000
FTUS43 KGRR 251400 AAB
TAFGRR
TAF AMD
KGRR 251440Z 2515/2612 07015G20KT P6SM SCT020 BKN045
     FM260200 05007KT P6SM SCT035=



000
FTUS43 KGRR 251400 AAB
TAFMKG
TAF AMD
KMKG 251438Z 2515/2612 06014G19KT P6SM OVC060
     FM260000 05006KT P6SM SCT035=



000
FTUS43 KGRR 251300 AAA
TAFBTL
TAF AMD
KBTL 251300Z 2513/2612 05012G18KT P6SM OVC008
      TEMPO 2513/2516 4SM -SHSN OVC005
     FM251800 06012G18KT 4SM -SHSN BR OVC011
     FM252100 04012G18KT 6SM BR OVC015
     FM260300 03007KT P6SM BKN025=



000
FTUS43 KGRR 251300 AAA
TAFLAN
TAF AMD
KLAN 251300Z 2513/2612 05014G20KT P6SM BKN030
     FM260200 05007KT P6SM SCT035=



000
FTUS43 KGRR 251300 AAA
TAFMKG
TAF AMD
KMKG 251300Z 2513/2612 06014G19KT P6SM OVC030
     FM260000 05006KT P6SM BKN035=



000
FTUS43 KGRR 251300 AAA
TAFGRR
TAF AMD
KGRR 251300Z 2513/2612 05015G20KT P6SM OVC030
     FM260200 05007KT P6SM SCT035=



000
FTUS43 KGRR 251300 AAA
TAFAZO
TAF AMD
KAZO 251300Z 2513/2612 05012G18KT P6SM OVC008
      TEMPO 2513/2516 4SM -SHSN OVC005
     FM251600 06012G18KT 6SM -SHSN BR OVC011
     FM252100 04012G18KT 6SM BR OVC015
     FM260300 03007KT P6SM BKN025=



000
FTUS43 KGRR 251300 AAA
TAFJXN
TAF AMD
KJXN 251300Z 2513/2612 05012G18KT P6SM OVC010
      TEMPO 2513/2516 5SM -SHSN OVC005
     FM251800 06012G18KT 6SM -SHSN BR OVC011
     FM252100 04012G18KT 6SM BR OVC015
     FM260300 03007KT P6SM BKN025=



000
FTUS43 KGRR 251100
TAFJXN
TAF
KJXN 251140Z 2512/2612 05012KT 5SM BR OVC008
      TEMPO 2512/2516 3SM -SHSN OVC005
     FM251800 06012KT 4SM -SHSN BR OVC011
     FM252100 04011KT 6SM BR OVC015
     FM260300 03007KT P6SM BKN025=



000
FTUS43 KGRR 251100
TAFLAN
TAF
KLAN 251140Z 2512/2612 05013KT P6SM OVC015
     FM251800 06015KT P6SM OVC025
     FM260200 05007KT P6SM SCT035=



000
FTUS43 KGRR 251100
TAFBTL
TAF
KBTL 251140Z 2512/2612 05012KT 5SM BR OVC008
      TEMPO 2512/2516 3SM -SHSN OVC005
     FM251800 06012KT 4SM -SHSN BR OVC011
     FM252100 04011KT 6SM BR OVC015
     FM260300 03007KT P6SM BKN025=



000
FTUS43 KGRR 251100
TAFAZO
TAF
KAZO 251140Z 2512/2612 05012KT 5SM BR OVC008
      TEMPO 2512/2516 3SM -SHSN OVC005
     FM251800 06012KT 4SM -SHSN BR OVC011
     FM252100 04011KT 6SM BR OVC015
     FM260300 03007KT P6SM BKN025=



000
FTUS43 KGRR 251100
TAFGRR
TAF
KGRR 251140Z 2512/2612 05015KT P6SM OVC015
     FM251800 06015KT P6SM OVC025
     FM260200 05007KT P6SM SCT035=



000
FTUS43 KGRR 251100
TAFMKG
TAF
KMKG 251140Z 2512/2612 06014KT P6SM OVC025
     FM260000 05006KT P6SM BKN035=



000
FTUS43 KGRR 251000 AAA
TAFJXN
TAF AMD
KJXN 251013Z 2510/2606 03006KT 4SM BR OVC008
      TEMPO 2510/2513 OVC006
     FM251500 06012KT 5SM -SN BR OVC015
     FM252100 04010KT P6SM OVC025
     FM260300 05007KT P6SM SCT035=



000
FTUS43 KGRR 250900 AAA
TAFBTL
TAF AMD
KBTL 250909Z 2509/2606 03004KT 5SM BR OVC005
     FM251200 04007KT 4SM -SHSN BR OVC008
     FM251500 06012KT 5SM -SN BR OVC009
     FM252100 04010KT P6SM OVC025
     FM260300 05007KT P6SM SCT035=



000
FTUS43 KGRR 250900 AAA
TAFAZO
TAF AMD
KAZO 250905Z 2509/2606 03004KT 5SM BR OVC009
      TEMPO 2509/2513 BKN015
     FM251500 06012KT 5SM -SN BR OVC015
     FM252100 04010KT P6SM OVC025
     FM260300 05007KT P6SM SCT035=



000
FTUS43 KGRR 250900 AAA
TAFGRR
TAF AMD
KGRR 250901Z 2509/2606 05010KT P6SM OVC015
     FM251600 05012KT P6SM OVC025
     FM260200 05007KT P6SM SCT035=



000
FTUS43 KGRR 250800 AAA
TAFMKG
TAF AMD
KMKG 250900Z 2509/2606 05007KT P6SM SCT010 BKN020
     FM251200 05011KT P6SM OVC025
     FM260200 05007KT P6SM SCT035=



000
FTUS43 KGRR 250500
TAFLAN
TAF
KLAN 250540Z 2506/2606 36005KT 5SM BR OVC015
      TEMPO 2506/2510 3SM -SN BR OVC008
     FM251000 05009KT 4SM BR OVC015
     FM251600 05012KT P6SM OVC025
     FM260200 05007KT P6SM SCT035=



000
FTUS43 KGRR 250500
TAFBTL
TAF
KBTL 250540Z 2506/2606 25005KT P6SM OVC025
     FM251000 04007KT 4SM BR OVC015
     FM251500 06012KT 5SM -SN BR OVC015
     FM252100 04010KT P6SM OVC025
     FM260300 05007KT P6SM SCT035=



000
FTUS43 KGRR 250500
TAFJXN
TAF
KJXN 250540Z 2506/2606 25005KT 6SM BR OVC015
     FM251000 04007KT 4SM BR OVC015
     FM251500 06012KT 5SM -SN BR OVC015
     FM252100 04010KT P6SM OVC025
     FM260300 05007KT P6SM SCT035=



000
FTUS43 KGRR 250500
TAFAZO
TAF
KAZO 250540Z 2506/2606 25005KT P6SM OVC025
     FM251000 04007KT 4SM BR OVC015
     FM251500 06012KT 5SM -SN BR OVC015
     FM252100 04010KT P6SM OVC025
     FM260300 05007KT P6SM SCT035=



000
FTUS43 KGRR 250500
TAFGRR
TAF
KGRR 250540Z 2506/2606 36005KT 5SM BR OVC015
      TEMPO 2506/2510 3SM -SN BR OVC008
     FM251000 05009KT 4SM BR OVC015
     FM251600 05012KT P6SM OVC025
     FM260200 05007KT P6SM SCT035=



000
FTUS43 KGRR 250500
TAFMKG
TAF
KMKG 250540Z 2506/2606 36005KT 5SM BR OVC012
      TEMPO 2506/2509 3SM -SN BR OVC008
     FM250900 05008KT 4SM BR OVC015
     FM251600 05011KT P6SM OVC025
     FM260200 05007KT P6SM SCT035=



000
FTUS43 KGRR 250400 AAA
TAFMKG
TAF AMD
KMKG 250426Z 2504/2524 35005KT 5SM BR OVC012
      TEMPO 2504/2508 3SM -SN BR OVC010
     FM250900 03007KT 4SM BR OVC015
     FM251300 05011KT P6SM OVC025=



000
FTUS43 KGRR 250000 RRA
TAFLAN
TAF
KLAN 250004Z 2500/2524 28007KT P6SM OVC025
      TEMPO 2500/2504 4SM -RASN OVC015
     FM250400 30007KT 6SM BR OVC030
     FM250700 03007KT 3SM BR OVC015
     FM251300 06012KT P6SM OVC025=



000
FTUS43 KGRR 250000 RRA
TAFGRR
TAF
KGRR 250004Z 2500/2524 28007KT P6SM OVC025
      TEMPO 2500/2504 4SM -RASN OVC015
     FM250400 30007KT 6SM BR OVC030
     FM250700 03007KT 3SM BR OVC015
     FM251300 06012KT P6SM OVC025=



000
FTUS43 KGRR 250000 RRA
TAFMKG
TAF
KMKG 250004Z 2500/2524 30007KT P6SM OVC035
      TEMPO 2500/2504 4SM -SN OVC025
     FM250400 34007KT P6SM OVC030
     FM250700 03007KT P6SM OVC015
     FM251300 05011KT P6SM OVC025=



000
FTUS43 KGRR 250000 RRA
TAFAZO
TAF
KAZO 250004Z 2500/2524 25006KT P6SM OVC035
      TEMPO 2500/2504 OVC025
     FM250400 30007KT 6SM BR OVC025
     FM250700 03007KT 3SM BR OVC015
     FM251300 06011KT 5SM -SN BR OVC015=



000
FTUS43 KGRR 250000 RRA
TAFJXN
TAF
KJXN 250004Z 2500/2524 25006KT P6SM OVC025
      TEMPO 2500/2504 OVC015
     FM250400 30007KT 6SM BR OVC015
     FM250700 03007KT 3SM BR OVC015
     FM251300 06011KT 5SM -SN BR OVC015=



000
FTUS43 KGRR 250000 RRA
TAFBTL
TAF
KBTL 250004Z 2500/2524 25006KT P6SM OVC035
      TEMPO 2500/2504 OVC025
     FM250400 30007KT 6SM BR OVC025
     FM250700 03007KT 3SM BR OVC015
     FM251300 06011KT 5SM -SN BR OVC015=



000
FTUS43 KGRR 242000 AAB
TAFJXN
TAF AMD
KJXN 242020Z 2420/2518 29010KT P6SM OVC015
     FM250400 35006KT 2SM -SN BR OVC008
     FM251300 06010KT 2SM -SN BR OVC008=



000
FTUS43 KGRR 242000 AAA
TAFLAN
TAF AMD
KLAN 242020Z 2420/2518 27010KT P6SM OVC020
     FM250400 35006KT 2SM -SN BR OVC015
     FM251300 06010KT 2SM -SN BR OVC010=



000
FTUS43 KGRR 242000 AAA
TAFAZO
TAF AMD
KAZO 242019Z 2420/2518 28008KT P6SM OVC025
     FM250000 27005KT 6SM BR OVC015
     FM250400 25005KT 1 1/2SM -SN BR OVC006
     FM251200 06010KT 1 1/2SM -SN BR OVC006=



000
FTUS43 KGRR 242000 AAA
TAFBTL
TAF AMD
KBTL 242019Z 2420/2518 28010KT P6SM OVC025
     FM250000 27005KT 6SM BR OVC015
     FM250400 25005KT 1 1/2SM -SN BR OVC007
     FM251200 06010KT 1 1/2SM -SN BR OVC007=



000
FTUS43 KGRR 242000 AAA
TAFGRR
TAF AMD
KGRR 242018Z 2420/2518 27010KT P6SM OVC020
     FM250400 35006KT 1 1/2SM -SN BR OVC015
     FM251200 06010KT 1 1/2SM -SN BR OVC010=



000
FTUS43 KGRR 241800 AAA
TAFJXN
TAF AMD
KJXN 241822Z 2418/2518 27008KT 5SM BR OVC010
     FM250400 35006KT 2SM -SN BR OVC008
     FM251300 06010KT 2SM -SN BR OVC008=



000
FTUS43 KGRR 241700 RRA
TAFGRR
TAF
KGRR 241742Z 2418/2518 26010KT P6SM OVC015
     FM250400 35006KT 1 1/2SM -SN BR OVC015
     FM251200 06010KT 1 1/2SM -SN BR OVC010=



000
FTUS43 KGRR 241700 RRA
TAFBTL
TAF
KBTL 241742Z 2418/2518 27005KT 5SM BR OVC009
     FM242000 27008KT P6SM OVC015
     FM250000 27005KT 6SM BR OVC008
     FM250400 25005KT 1 1/2SM -SN BR OVC007
     FM251200 06010KT 1 1/2SM -SN BR OVC007=



000
FTUS43 KGRR 241700 RRA
TAFMKG
TAF
KMKG 241742Z 2418/2518 28008KT P6SM OVC025
     FM250300 02005KT 3SM -SN BR OVC012=



000
FTUS43 KGRR 241700 RRA
TAFAZO
TAF
KAZO 241742Z 2418/2518 27005KT 5SM BR OVC008
     FM242000 27008KT P6SM OVC015
     FM250000 27005KT 6SM BR OVC008
     FM250400 25005KT 1 1/2SM -SN BR OVC006
     FM251200 06010KT 1 1/2SM -SN BR OVC006=



000
FTUS43 KGRR 241700 RRA
TAFJXN
TAF
KJXN 241742Z 2418/2518 27008KT 5SM BR OVC008
     FM250400 35006KT 2SM -SN BR OVC008
     FM251300 06010KT 2SM -SN BR OVC008=



000
FTUS43 KGRR 241700 RRA
TAFLAN
TAF
KLAN 241742Z 2418/2518 27010KT 5SM BR OVC040
     FM242000 27008KT P6SM OVC015
     FM250400 35006KT 2SM -SN BR OVC015
     FM251300 06010KT 2SM -SN BR OVC010=



000
FTUS43 KGRR 241500 AAA
TAFLAN
TAF AMD
KLAN 241524Z 2415/2512 25008KT 4SM BR OVC009
     FM250300 29006KT 3SM BR OVC012=



000
FTUS43 KGRR 241500 AAA
TAFJXN
TAF AMD
KJXN 241524Z 2415/2512 23008KT 5SM BR OVC009
     FM250300 29006KT 3SM -SHSN BR OVC008=



000
FTUS43 KGRR 241500 AAA
TAFBTL
TAF AMD
KBTL 241523Z 2415/2512 23008KT 5SM BR OVC008
     FM250300 36004KT 3SM -SHSN BR OVC008=



000
FTUS43 KGRR 241500 AAA
TAFAZO
TAF AMD
KAZO 241520Z 2415/2512 22007KT 4SM BR OVC009
     FM250300 36004KT 3SM -SHSN BR OVC007=



000
FTUS43 KGRR 241500 AAA
TAFMKG
TAF AMD
KMKG 241519Z 2415/2512 27010KT P6SM OVC035
     FM250000 28006KT 4SM BR OVC015
     FM250300 32005KT 4SM -SHSN BR OVC012=



000
FTUS43 KGRR 241500 AAA
TAFGRR
TAF AMD
KGRR 241519Z 2415/2512 27008KT 4SM BR OVC012
     FM250300 02007KT 5SM -SHSN OVC012=



    US Dept of Commerce
    National Oceanic and Atmospheric Administration
    National Weather Service
    1325 East West Highway
    Silver Spring, MD 20910
    Page Author: NWS Internet Services Team
Disclaimer
Information Quality
Credits
Glossary
Privacy Policy
Freedom of Information Act (FOIA)
About Us
Career Opportunities